createdAt,value
2022-08-22T00:00:54.073Z,99813.25
2022-08-22T00:03:50.747Z,99818.11
2022-08-22T00:06:28.763Z,99811.66
2022-08-22T00:09:11.306Z,99808.80
2022-08-22T00:12:16.380Z,99806.90
2022-08-22T00:15:05.953Z,99808.02
2022-08-22T00:17:39.392Z,99817.39
2022-08-22T00:20:10.795Z,99819.72
2022-08-22T00:23:10.939Z,99820.01
2022-08-22T00:26:13.402Z,99821.52
2022-08-22T00:28:46.488Z,99820.86
2022-08-22T00:31:21.117Z,99824.10
2022-08-22T00:33:55.446Z,99823.65
2022-08-22T00:36:33.665Z,99828.13
2022-08-22T00:39:19.019Z,99839.14
2022-08-22T00:42:08.916Z,99842.09
2022-08-22T00:44:54.355Z,99840.22
2022-08-22T00:47:44.240Z,99841.77
2022-08-22T00:50:33.894Z,99846.63
2022-08-22T00:53:32.312Z,99844.26
2022-08-22T00:56:14.382Z,99845.63
2022-08-22T01:02:31.844Z,99850.65
2022-08-22T01:05:38.027Z,99852.93
2022-08-22T01:12:13.300Z,99855.36
2022-08-22T01:15:25.543Z,99859.62
2022-08-22T01:18:38.677Z,99854.27
2022-08-22T01:25:08.951Z,99853.77
2022-08-22T01:28:57.602Z,99850.94
2022-08-22T01:32:02.067Z,99853.52
2022-08-22T01:34:49.582Z,99856.25
2022-08-22T01:38:11.085Z,99857.06
2022-08-22T01:41:12.180Z,99859.21
2022-08-22T01:44:26.952Z,99864.98
2022-08-22T01:47:12.708Z,99861.70
2022-08-22T01:49:57.568Z,99861.86
2022-08-22T01:52:44.130Z,99856.41
2022-08-22T01:55:30.028Z,99855.81
2022-08-22T02:05:15.915Z,99855.49
2022-08-22T02:08:08.938Z,99857.68
2022-08-22T02:11:07.079Z,99857.46
2022-08-22T02:13:37.798Z,99858.36
2022-08-22T02:16:44.800Z,99858.42
2022-08-22T02:22:44.843Z,99864.30
2022-08-22T02:25:37.255Z,99869.59
2022-08-22T02:28:56.518Z,99865.46
2022-08-22T02:32:10.747Z,99867.08
2022-08-22T02:42:22.622Z,99865.92
2022-08-22T02:45:09.552Z,99866.20
2022-08-22T02:48:02.487Z,99872.48
2022-08-22T02:50:56.312Z,99868.51
2022-08-22T02:53:34.264Z,99873.49
2022-08-22T02:56:48.213Z,99873.73
2022-08-22T03:03:25.091Z,99871.91
2022-08-22T03:06:41.465Z,99873.05
2022-08-22T03:09:34.957Z,99876.34
2022-08-22T03:12:38.729Z,99877.80
2022-08-22T03:15:26.201Z,99882.91
2022-08-22T03:18:33.829Z,99881.43
2022-08-22T03:21:44.037Z,99880.95
2022-08-22T03:24:40.586Z,99885.23
2022-08-22T03:31:36.505Z,99879.73
2022-08-22T03:34:29.695Z,99877.64
2022-08-22T03:37:43.877Z,99877.61
2022-08-22T03:40:26.662Z,99873.50
2022-08-22T03:43:52.841Z,99869.41
2022-08-22T03:46:49.996Z,99868.39
2022-08-22T03:50:11.131Z,99866.02
2022-08-22T03:53:18.631Z,99872.55
2022-08-22T03:56:11.051Z,99870.12
2022-08-22T04:02:43.306Z,99879.20
2022-08-22T04:05:40.850Z,99876.73
2022-08-22T04:09:01.976Z,99881.80
2022-08-22T04:12:06.490Z,99885.78
2022-08-22T04:18:18.511Z,99895.63
2022-08-22T04:21:20.583Z,99895.18
2022-08-22T04:24:23.755Z,99891.41
2022-08-22T04:27:29.321Z,99896.98
2022-08-22T04:30:09.258Z,99899.83
2022-08-22T04:33:11.258Z,99900.32
2022-08-22T04:39:11.520Z,99897.79
2022-08-22T04:45:09.919Z,99894.89
2022-08-22T04:48:20.371Z,99896.07
2022-08-22T04:54:36.714Z,99897.86
2022-08-22T04:57:45.440Z,99901.77
2022-08-22T05:03:25.988Z,99904.91
2022-08-22T05:06:23.408Z,99904.81
2022-08-22T05:09:40.319Z,99906.16
2022-08-22T05:12:34.706Z,99905.97
2022-08-22T05:18:58.596Z,99911.95
2022-08-22T05:21:42.435Z,99916.64
2022-08-22T05:24:57.744Z,99916.92
2022-08-22T05:27:56.228Z,99919.65
2022-08-22T05:30:35.168Z,99916.77
2022-08-22T05:33:17.777Z,99916.31
2022-08-22T05:36:19.915Z,99920.88
2022-08-22T05:39:20.075Z,99924.44
2022-08-22T05:45:35.601Z,99919.25
2022-08-22T05:49:05.368Z,99917.53
2022-08-22T05:59:49.456Z,99922.42
2022-08-22T06:06:31.268Z,99921.27
2022-08-22T06:17:09.758Z,99920.30
2022-08-22T06:20:03.586Z,99927.00
2022-08-22T06:22:55.518Z,99922.83
2022-08-22T06:25:56.347Z,99926.52
2022-08-22T06:32:02.070Z,99926.73
2022-08-22T06:35:38.785Z,99929.36
2022-08-22T06:41:39.364Z,99935.67
2022-08-22T06:44:39.431Z,99939.70
2022-08-22T06:47:41.291Z,99941.20
2022-08-22T06:53:57.628Z,99946.41
2022-08-22T06:56:48.993Z,99955.35
2022-08-22T06:59:46.526Z,99958.64
2022-08-22T07:03:17.339Z,99958.45
2022-08-22T07:05:58.928Z,99954.33
2022-08-22T07:08:39.124Z,99953.18
2022-08-22T07:12:02.681Z,99955.99
2022-08-22T07:18:09.939Z,99960.30
2022-08-22T07:21:13.897Z,99959.69
2022-08-22T07:24:16.586Z,99959.27
2022-08-22T07:31:44.075Z,99953.38
2022-08-22T07:49:13.372Z,99967.54
2022-08-22T07:51:45.769Z,99973.09
2022-08-22T07:54:16.250Z,99975.56
2022-08-22T07:57:00.015Z,99974.62
2022-08-22T07:59:28.812Z,99973.98
2022-08-22T08:01:59.014Z,99972.09
2022-08-22T08:04:31.258Z,99975.23
2022-08-22T08:07:00.850Z,99976.11
2022-08-22T08:09:32.421Z,99975.08
2022-08-22T08:12:02.638Z,99974.64
2022-08-22T08:14:30.060Z,99979.45
2022-08-22T08:17:08.989Z,99980.73
2022-08-22T08:19:39.693Z,99985.08
2022-08-22T08:22:14.727Z,99982.73
2022-08-22T08:24:43.546Z,99981.94
2022-08-22T08:27:30.961Z,99983.07
2022-08-22T08:30:10.071Z,99984.11
2022-08-22T08:32:45.533Z,99981.91
2022-08-22T08:35:42.426Z,99979.80
2022-08-22T08:38:30.524Z,99975.29
2022-08-22T08:41:06.731Z,99976.03
2022-08-22T08:43:38.936Z,99980.59
2022-08-22T08:46:34.039Z,99981.09
2022-08-22T08:49:09.859Z,99980.35
2022-08-22T08:51:46.382Z,99983.03
2022-08-22T08:54:42.846Z,99979.11
2022-08-22T08:57:25.721Z,99983.04
2022-08-22T09:00:07.795Z,99977.66
2022-08-22T09:02:53.078Z,99979.25
2022-08-22T09:05:25.344Z,99975.79
2022-08-22T09:08:23.953Z,99972.06
2022-08-22T09:11:28.572Z,99968.90
2022-08-22T09:14:14.278Z,99968.98
2022-08-22T09:16:58.451Z,99971.21
2022-08-22T09:19:54.723Z,99971.77
2022-08-22T09:22:50.004Z,99977.35
2022-08-22T09:25:23.482Z,99977.27
2022-08-22T09:28:02.046Z,99978.95
2022-08-22T09:33:52.054Z,99985.54
2022-08-22T09:36:38.451Z,99985.71
2022-08-22T09:39:16.899Z,99988.30
2022-08-22T09:42:02.764Z,99990.38
2022-08-22T09:44:49.292Z,99992.05
2022-08-22T09:47:32.782Z,99995.15
2022-08-22T09:50:19.740Z,99991.73
2022-08-22T09:52:53.104Z,99994.13
2022-08-22T09:55:39.613Z,99994.61
2022-08-22T09:58:40.845Z,99997.08
2022-08-22T10:01:25.710Z,99995.01
2022-08-22T10:04:23.610Z,99996.76
2022-08-22T10:07:16.713Z,99998.44
2022-08-22T10:10:03.732Z,99993.58
2022-08-22T10:12:52.280Z,99988.55
2022-08-22T10:15:29.598Z,99995.48
2022-08-22T10:18:28.262Z,99993.25
2022-08-22T10:21:01.331Z,99994.77
2022-08-22T10:24:00.909Z,99997.39
2022-08-22T10:26:37.894Z,99998.83
2022-08-22T10:29:37.884Z,99999.38
2022-08-22T10:32:37.344Z,99996.81
2022-08-22T10:35:36.453Z,99996.73
2022-08-22T10:38:21.173Z,99991.79
2022-08-22T10:41:09.956Z,99990.98
2022-08-22T10:43:47.541Z,99990.67
2022-08-22T10:46:34.028Z,99997.04
2022-08-22T10:49:15.390Z,99994.56
2022-08-22T10:51:58.407Z,99997.52
2022-08-22T10:54:57.568Z,99997.42
2022-08-22T10:57:40.873Z,99999.45
2022-08-22T11:00:34.728Z,99997.60
2022-08-22T11:03:43.025Z,99996.10
2022-08-22T11:06:30.400Z,99994.44
2022-08-22T11:09:31.157Z,99986.06
